sensor_id;sensor_type;location;lat;lon;timestamp;P1;durP1;ratioP1;P2;durP2;ratioP2
50769;SDS011;36740;48.698;11.472;2022-11-20T00:00:43;20.85;;;13.63;;
50769;SDS011;36740;48.698;11.472;2022-11-20T00:03:28;15.55;;;9.60;;
50769;SDS011;36740;48.698;11.472;2022-11-20T00:06:15;16.75;;;10.20;;
50769;SDS011;36740;48.698;11.472;2022-11-20T00:09:01;15.40;;;10.80;;
50769;SDS011;36740;48.698;11.472;2022-11-20T00:11:47;13.30;;;9.85;;
50769;SDS011;36740;48.698;11.472;2022-11-20T00:14:32;19.35;;;12.85;;
50769;SDS011;36740;48.698;11.472;2022-11-20T00:17:18;22.17;;;15.45;;
50769;SDS011;36740;48.698;11.472;2022-11-20T00:20:04;12.88;;;10.98;;
50769;SDS011;36740;48.698;11.472;2022-11-20T00:22:50;22.67;;;11.65;;
50769;SDS011;36740;48.698;11.472;2022-11-20T00:25:35;17.55;;;11.38;;
50769;SDS011;36740;48.698;11.472;2022-11-20T00:28:21;20.08;;;11.13;;
50769;SDS011;36740;48.698;11.472;2022-11-20T00:31:11;17.63;;;10.43;;
50769;SDS011;36740;48.698;11.472;2022-11-20T00:33:57;19.60;;;12.25;;
50769;SDS011;36740;48.698;11.472;2022-11-20T00:36:42;15.82;;;10.77;;
50769;SDS011;36740;48.698;11.472;2022-11-20T00:39:31;19.83;;;11.25;;
50769;SDS011;36740;48.698;11.472;2022-11-20T00:42:16;17.25;;;9.90;;
50769;SDS011;36740;48.698;11.472;2022-11-20T00:45:02;18.52;;;11.45;;
50769;SDS011;36740;48.698;11.472;2022-11-20T00:47:48;18.20;;;10.77;;
50769;SDS011;36740;48.698;11.472;2022-11-20T00:50:33;19.08;;;11.75;;
50769;SDS011;36740;48.698;11.472;2022-11-20T00:53:19;17.42;;;10.50;;
50769;SDS011;36740;48.698;11.472;2022-11-20T00:56:06;20.02;;;13.68;;
50769;SDS011;36740;48.698;11.472;2022-11-20T00:58:52;15.02;;;10.35;;
50769;SDS011;36740;48.698;11.472;2022-11-20T01:01:38;21.70;;;10.65;;
50769;SDS011;36740;48.698;11.472;2022-11-20T01:04:23;15.60;;;9.15;;
50769;SDS011;36740;48.698;11.472;2022-11-20T01:07:09;18.13;;;13.13;;
50769;SDS011;36740;48.698;11.472;2022-11-20T01:09:55;16.85;;;11.45;;
50769;SDS011;36740;48.698;11.472;2022-11-20T01:12:40;12.23;;;9.80;;
50769;SDS011;36740;48.698;11.472;2022-11-20T01:15:26;13.57;;;8.63;;
50769;SDS011;36740;48.698;11.472;2022-11-20T01:18:12;18.90;;;10.80;;
50769;SDS011;36740;48.698;11.472;2022-11-20T01:21:01;19.58;;;12.85;;
50769;SDS011;36740;48.698;11.472;2022-11-20T01:23:48;14.25;;;10.15;;
50769;SDS011;36740;48.698;11.472;2022-11-20T01:26:35;20.15;;;12.82;;
50769;SDS011;36740;48.698;11.472;2022-11-20T01:29:22;20.70;;;12.10;;
50769;SDS011;36740;48.698;11.472;2022-11-20T01:32:08;21.67;;;12.70;;
50769;SDS011;36740;48.698;11.472;2022-11-20T01:34:54;18.10;;;10.98;;
50769;SDS011;36740;48.698;11.472;2022-11-20T01:37:39;23.10;;;12.32;;
50769;SDS011;36740;48.698;11.472;2022-11-20T01:40:25;20.05;;;13.23;;
50769;SDS011;36740;48.698;11.472;2022-11-20T01:43:16;18.70;;;12.90;;
50769;SDS011;36740;48.698;11.472;2022-11-20T01:46:15;17.60;;;10.38;;
50769;SDS011;36740;48.698;11.472;2022-11-20T01:51:50;18.38;;;11.60;;
50769;SDS011;36740;48.698;11.472;2022-11-20T01:54:44;17.50;;;10.85;;
50769;SDS011;36740;48.698;11.472;2022-11-20T01:57:32;19.13;;;10.48;;
50769;SDS011;36740;48.698;11.472;2022-11-20T02:00:19;21.38;;;11.85;;
50769;SDS011;36740;48.698;11.472;2022-11-20T02:03:12;19.80;;;13.02;;
50769;SDS011;36740;48.698;11.472;2022-11-20T02:08:54;17.58;;;9.85;;
50769;SDS011;36740;48.698;11.472;2022-11-20T02:11:40;18.10;;;12.50;;
50769;SDS011;36740;48.698;11.472;2022-11-20T02:14:25;18.73;;;9.77;;
50769;SDS011;36740;48.698;11.472;2022-11-20T02:17:11;18.67;;;11.88;;
50769;SDS011;36740;48.698;11.472;2022-11-20T02:19:57;16.23;;;10.35;;
50769;SDS011;36740;48.698;11.472;2022-11-20T02:25:58;14.18;;;9.65;;
50769;SDS011;36740;48.698;11.472;2022-11-20T02:28:46;18.80;;;10.43;;
50769;SDS011;36740;48.698;11.472;2022-11-20T02:31:36;18.70;;;11.30;;
50769;SDS011;36740;48.698;11.472;2022-11-20T02:34:22;18.33;;;13.13;;
50769;SDS011;36740;48.698;11.472;2022-11-20T02:37:07;17.00;;;12.75;;
50769;SDS011;36740;48.698;11.472;2022-11-20T02:39:53;18.73;;;11.73;;
50769;SDS011;36740;48.698;11.472;2022-11-20T02:42:38;14.95;;;11.25;;
50769;SDS011;36740;48.698;11.472;2022-11-20T02:45:24;18.10;;;10.25;;
50769;SDS011;36740;48.698;11.472;2022-11-20T02:48:10;14.98;;;9.55;;
50769;SDS011;36740;48.698;11.472;2022-11-20T02:50:55;19.35;;;10.32;;
50769;SDS011;36740;48.698;11.472;2022-11-20T02:53:41;17.20;;;12.07;;
50769;SDS011;36740;48.698;11.472;2022-11-20T02:56:26;15.85;;;10.57;;
50769;SDS011;36740;48.698;11.472;2022-11-20T02:59:12;16.48;;;9.95;;
50769;SDS011;36740;48.698;11.472;2022-11-20T03:01:58;15.32;;;10.65;;
50769;SDS011;36740;48.698;11.472;2022-11-20T03:04:43;22.60;;;11.10;;
50769;SDS011;36740;48.698;11.472;2022-11-20T03:07:29;19.75;;;10.85;;
50769;SDS011;36740;48.698;11.472;2022-11-20T03:10:14;18.70;;;11.20;;
50769;SDS011;36740;48.698;11.472;2022-11-20T03:13:00;17.10;;;10.40;;
50769;SDS011;36740;48.698;11.472;2022-11-20T03:15:46;15.38;;;10.23;;
50769;SDS011;36740;48.698;11.472;2022-11-20T03:18:31;17.38;;;9.38;;
50769;SDS011;36740;48.698;11.472;2022-11-20T03:21:17;17.58;;;11.95;;
50769;SDS011;36740;48.698;11.472;2022-11-20T03:24:03;16.02;;;9.77;;
50769;SDS011;36740;48.698;11.472;2022-11-20T03:26:48;15.32;;;10.50;;
50769;SDS011;36740;48.698;11.472;2022-11-20T03:29:37;15.65;;;11.00;;
50769;SDS011;36740;48.698;11.472;2022-11-20T03:32:22;12.05;;;9.10;;
50769;SDS011;36740;48.698;11.472;2022-11-20T03:35:08;18.40;;;9.82;;
50769;SDS011;36740;48.698;11.472;2022-11-20T03:37:54;14.48;;;10.80;;
50769;SDS011;36740;48.698;11.472;2022-11-20T03:40:40;15.05;;;9.90;;
50769;SDS011;36740;48.698;11.472;2022-11-20T03:43:25;17.30;;;10.82;;
50769;SDS011;36740;48.698;11.472;2022-11-20T03:46:11;29.58;;;13.38;;
50769;SDS011;36740;48.698;11.472;2022-11-20T03:48:56;15.23;;;8.63;;
50769;SDS011;36740;48.698;11.472;2022-11-20T03:51:42;12.90;;;8.20;;
50769;SDS011;36740;48.698;11.472;2022-11-20T03:54:28;17.02;;;10.02;;
50769;SDS011;36740;48.698;11.472;2022-11-20T03:57:13;14.88;;;7.25;;
50769;SDS011;36740;48.698;11.472;2022-11-20T03:59:59;14.13;;;7.30;;
50769;SDS011;36740;48.698;11.472;2022-11-20T04:02:47;9.90;;;7.28;;
50769;SDS011;36740;48.698;11.472;2022-11-20T04:05:33;9.52;;;5.72;;
50769;SDS011;36740;48.698;11.472;2022-11-20T04:08:19;8.57;;;4.78;;
50769;SDS011;36740;48.698;11.472;2022-11-20T04:11:18;7.07;;;5.43;;
50769;SDS011;36740;48.698;11.472;2022-11-20T04:14:04;9.13;;;4.63;;
50769;SDS011;36740;48.698;11.472;2022-11-20T04:16:51;5.88;;;3.75;;
50769;SDS011;36740;48.698;11.472;2022-11-20T04:19:36;9.77;;;4.85;;
50769;SDS011;36740;48.698;11.472;2022-11-20T04:22:22;6.30;;;3.83;;
50769;SDS011;36740;48.698;11.472;2022-11-20T04:25:08;4.90;;;3.33;;
50769;SDS011;36740;48.698;11.472;2022-11-20T04:27:53;5.38;;;3.92;;
50769;SDS011;36740;48.698;11.472;2022-11-20T04:30:40;4.80;;;3.47;;
50769;SDS011;36740;48.698;11.472;2022-11-20T04:33:25;5.75;;;3.75;;
50769;SDS011;36740;48.698;11.472;2022-11-20T04:36:12;4.72;;;3.38;;
50769;SDS011;36740;48.698;11.472;2022-11-20T04:38:58;8.57;;;5.75;;
50769;SDS011;36740;48.698;11.472;2022-11-20T04:41:44;5.45;;;3.30;;
50769;SDS011;36740;48.698;11.472;2022-11-20T04:44:30;4.43;;;3.55;;
50769;SDS011;36740;48.698;11.472;2022-11-20T04:47:16;7.47;;;4.35;;
50769;SDS011;36740;48.698;11.472;2022-11-20T04:50:01;4.65;;;3.63;;
50769;SDS011;36740;48.698;11.472;2022-11-20T04:52:47;6.85;;;4.47;;
50769;SDS011;36740;48.698;11.472;2022-11-20T04:55:33;6.18;;;3.20;;
50769;SDS011;36740;48.698;11.472;2022-11-20T04:58:18;10.05;;;4.43;;
50769;SDS011;36740;48.698;11.472;2022-11-20T05:01:05;6.43;;;4.78;;
50769;SDS011;36740;48.698;11.472;2022-11-20T05:03:51;3.40;;;2.97;;
50769;SDS011;36740;48.698;11.472;2022-11-20T05:06:37;12.35;;;10.57;;
50769;SDS011;36740;48.698;11.472;2022-11-20T05:09:22;5.65;;;3.63;;
50769;SDS011;36740;48.698;11.472;2022-11-20T05:12:08;10.00;;;4.50;;
50769;SDS011;36740;48.698;11.472;2022-11-20T05:14:54;6.43;;;4.10;;
50769;SDS011;36740;48.698;11.472;2022-11-20T05:17:39;7.45;;;4.60;;
50769;SDS011;36740;48.698;11.472;2022-11-20T05:20:25;8.63;;;3.72;;
50769;SDS011;36740;48.698;11.472;2022-11-20T05:23:10;5.68;;;3.58;;
50769;SDS011;36740;48.698;11.472;2022-11-20T05:25:56;6.05;;;2.75;;
50769;SDS011;36740;48.698;11.472;2022-11-20T05:28:42;5.28;;;3.17;;
50769;SDS011;36740;48.698;11.472;2022-11-20T05:31:28;7.78;;;5.38;;
50769;SDS011;36740;48.698;11.472;2022-11-20T05:34:13;6.57;;;3.97;;
50769;SDS011;36740;48.698;11.472;2022-11-20T05:36:59;8.10;;;4.55;;
50769;SDS011;36740;48.698;11.472;2022-11-20T05:39:45;5.95;;;3.90;;
50769;SDS011;36740;48.698;11.472;2022-11-20T05:42:30;5.88;;;4.05;;
50769;SDS011;36740;48.698;11.472;2022-11-20T05:45:16;9.10;;;5.07;;
50769;SDS011;36740;48.698;11.472;2022-11-20T05:48:02;6.20;;;3.10;;
50769;SDS011;36740;48.698;11.472;2022-11-20T05:50:48;13.05;;;4.43;;
50769;SDS011;36740;48.698;11.472;2022-11-20T05:53:33;6.13;;;4.32;;
50769;SDS011;36740;48.698;11.472;2022-11-20T05:56:19;4.05;;;3.33;;
50769;SDS011;36740;48.698;11.472;2022-11-20T05:59:05;8.82;;;4.75;;
50769;SDS011;36740;48.698;11.472;2022-11-20T06:01:51;10.43;;;4.72;;
50769;SDS011;36740;48.698;11.472;2022-11-20T06:04:37;7.93;;;3.67;;
50769;SDS011;36740;48.698;11.472;2022-11-20T06:07:22;4.80;;;3.85;;
50769;SDS011;36740;48.698;11.472;2022-11-20T06:10:08;6.72;;;3.45;;
50769;SDS011;36740;48.698;11.472;2022-11-20T06:12:56;7.15;;;4.28;;
50769;SDS011;36740;48.698;11.472;2022-11-20T06:15:42;4.88;;;3.70;;
50769;SDS011;36740;48.698;11.472;2022-11-20T06:21:19;4.53;;;2.92;;
50769;SDS011;36740;48.698;11.472;2022-11-20T06:24:06;5.63;;;3.00;;
50769;SDS011;36740;48.698;11.472;2022-11-20T06:26:52;4.10;;;3.35;;
50769;SDS011;36740;48.698;11.472;2022-11-20T06:29:37;8.95;;;3.72;;
50769;SDS011;36740;48.698;11.472;2022-11-20T06:32:23;4.40;;;3.30;;
50769;SDS011;36740;48.698;11.472;2022-11-20T06:35:08;3.97;;;3.03;;
50769;SDS011;36740;48.698;11.472;2022-11-20T06:37:55;4.78;;;3.05;;
50769;SDS011;36740;48.698;11.472;2022-11-20T06:40:41;6.32;;;3.78;;
50769;SDS011;36740;48.698;11.472;2022-11-20T06:43:28;4.55;;;2.85;;
50769;SDS011;36740;48.698;11.472;2022-11-20T06:46:14;4.15;;;2.30;;
50769;SDS011;36740;48.698;11.472;2022-11-20T06:49:02;9.43;;;2.97;;
50769;SDS011;36740;48.698;11.472;2022-11-20T06:51:48;5.63;;;3.67;;
50769;SDS011;36740;48.698;11.472;2022-11-20T06:54:33;4.38;;;2.70;;
50769;SDS011;36740;48.698;11.472;2022-11-20T06:57:19;2.78;;;2.50;;
50769;SDS011;36740;48.698;11.472;2022-11-20T07:00:05;6.50;;;3.40;;
50769;SDS011;36740;48.698;11.472;2022-11-20T07:02:51;6.10;;;3.17;;
50769;SDS011;36740;48.698;11.472;2022-11-20T07:05:36;6.80;;;4.18;;
50769;SDS011;36740;48.698;11.472;2022-11-20T07:08:24;9.60;;;3.63;;
50769;SDS011;36740;48.698;11.472;2022-11-20T07:11:11;8.43;;;3.15;;
50769;SDS011;36740;48.698;11.472;2022-11-20T07:13:57;4.57;;;2.45;;
50769;SDS011;36740;48.698;11.472;2022-11-20T07:16:42;5.00;;;3.33;;
50769;SDS011;36740;48.698;11.472;2022-11-20T07:19:28;3.38;;;2.83;;
50769;SDS011;36740;48.698;11.472;2022-11-20T07:22:13;5.78;;;3.00;;
50769;SDS011;36740;48.698;11.472;2022-11-20T07:24:59;3.90;;;2.67;;
50769;SDS011;36740;48.698;11.472;2022-11-20T07:27:45;5.53;;;2.85;;
50769;SDS011;36740;48.698;11.472;2022-11-20T07:30:30;2.58;;;2.10;;
50769;SDS011;36740;48.698;11.472;2022-11-20T07:33:16;15.85;;;3.05;;
50769;SDS011;36740;48.698;11.472;2022-11-20T07:36:01;4.22;;;2.70;;
50769;SDS011;36740;48.698;11.472;2022-11-20T07:38:47;4.45;;;2.85;;
50769;SDS011;36740;48.698;11.472;2022-11-20T07:41:33;4.88;;;2.70;;
50769;SDS011;36740;48.698;11.472;2022-11-20T07:44:18;5.05;;;3.83;;
50769;SDS011;36740;48.698;11.472;2022-11-20T07:47:04;3.03;;;2.28;;
50769;SDS011;36740;48.698;11.472;2022-11-20T07:49:50;4.20;;;3.05;;
50769;SDS011;36740;48.698;11.472;2022-11-20T07:52:38;3.00;;;2.03;;
50769;SDS011;36740;48.698;11.472;2022-11-20T07:55:24;3.90;;;2.75;;
50769;SDS011;36740;48.698;11.472;2022-11-20T07:58:09;4.13;;;2.45;;
50769;SDS011;36740;48.698;11.472;2022-11-20T08:00:55;4.93;;;3.17;;
50769;SDS011;36740;48.698;11.472;2022-11-20T08:03:41;4.28;;;2.97;;
50769;SDS011;36740;48.698;11.472;2022-11-20T08:06:27;6.05;;;2.78;;
50769;SDS011;36740;48.698;11.472;2022-11-20T08:09:12;7.25;;;2.95;;
50769;SDS011;36740;48.698;11.472;2022-11-20T08:11:58;5.63;;;3.55;;
50769;SDS011;36740;48.698;11.472;2022-11-20T08:15:03;4.30;;;2.90;;
50769;SDS011;36740;48.698;11.472;2022-11-20T08:17:48;4.18;;;2.63;;
50769;SDS011;36740;48.698;11.472;2022-11-20T08:20:34;4.68;;;2.80;;
50769;SDS011;36740;48.698;11.472;2022-11-20T08:23:20;5.95;;;3.15;;
50769;SDS011;36740;48.698;11.472;2022-11-20T08:26:05;4.85;;;3.38;;
50769;SDS011;36740;48.698;11.472;2022-11-20T08:28:57;5.28;;;2.72;;
50769;SDS011;36740;48.698;11.472;2022-11-20T08:31:43;2.95;;;2.00;;
50769;SDS011;36740;48.698;11.472;2022-11-20T08:34:28;5.32;;;3.03;;
50769;SDS011;36740;48.698;11.472;2022-11-20T08:37:14;4.32;;;3.45;;
50769;SDS011;36740;48.698;11.472;2022-11-20T08:40:00;4.60;;;2.05;;
50769;SDS011;36740;48.698;11.472;2022-11-20T08:42:49;6.03;;;3.45;;
50769;SDS011;36740;48.698;11.472;2022-11-20T08:45:34;2.75;;;2.05;;
50769;SDS011;36740;48.698;11.472;2022-11-20T08:48:20;5.70;;;2.88;;
50769;SDS011;36740;48.698;11.472;2022-11-20T08:51:08;6.32;;;3.63;;
50769;SDS011;36740;48.698;11.472;2022-11-20T08:53:54;4.32;;;3.30;;
50769;SDS011;36740;48.698;11.472;2022-11-20T08:56:40;3.28;;;2.40;;
50769;SDS011;36740;48.698;11.472;2022-11-20T08:59:25;11.43;;;6.20;;
50769;SDS011;36740;48.698;11.472;2022-11-20T09:02:11;31.98;;;15.48;;
50769;SDS011;36740;48.698;11.472;2022-11-20T09:04:57;17.50;;;9.35;;
50769;SDS011;36740;48.698;11.472;2022-11-20T09:07:43;9.93;;;6.25;;
50769;SDS011;36740;48.698;11.472;2022-11-20T09:10:28;8.77;;;4.95;;
50769;SDS011;36740;48.698;11.472;2022-11-20T09:13:14;8.10;;;3.60;;
50769;SDS011;36740;48.698;11.472;2022-11-20T09:16:01;6.03;;;3.38;;
50769;SDS011;36740;48.698;11.472;2022-11-20T09:18:49;6.53;;;4.10;;
50769;SDS011;36740;48.698;11.472;2022-11-20T09:21:34;4.18;;;2.65;;
50769;SDS011;36740;48.698;11.472;2022-11-20T09:24:20;6.10;;;3.55;;
50769;SDS011;36740;48.698;11.472;2022-11-20T09:27:06;4.53;;;3.08;;
50769;SDS011;36740;48.698;11.472;2022-11-20T09:29:54;8.60;;;3.47;;
50769;SDS011;36740;48.698;11.472;2022-11-20T09:32:41;4.55;;;2.78;;
50769;SDS011;36740;48.698;11.472;2022-11-20T09:35:26;4.68;;;3.08;;
50769;SDS011;36740;48.698;11.472;2022-11-20T09:38:12;4.72;;;2.65;;
50769;SDS011;36740;48.698;11.472;2022-11-20T09:41:05;4.15;;;2.17;;
50769;SDS011;36740;48.698;11.472;2022-11-20T09:50:07;6.43;;;4.53;;
50769;SDS011;36740;48.698;11.472;2022-11-20T09:53:00;5.35;;;3.55;;
50769;SDS011;36740;48.698;11.472;2022-11-20T09:55:50;5.85;;;2.70;;
50769;SDS011;36740;48.698;11.472;2022-11-20T10:01:29;5.85;;;2.88;;
50769;SDS011;36740;48.698;11.472;2022-11-20T10:04:17;3.45;;;2.38;;
50769;SDS011;36740;48.698;11.472;2022-11-20T10:07:05;3.97;;;2.83;;
50769;SDS011;36740;48.698;11.472;2022-11-20T10:09:53;5.22;;;3.33;;
50769;SDS011;36740;48.698;11.472;2022-11-20T10:15:49;4.07;;;2.17;;
50769;SDS011;36740;48.698;11.472;2022-11-20T10:33:13;5.85;;;3.42;;
50769;SDS011;36740;48.698;11.472;2022-11-20T10:36:05;3.83;;;2.88;;
50769;SDS011;36740;48.698;11.472;2022-11-20T10:38:57;4.55;;;2.92;;
50769;SDS011;36740;48.698;11.472;2022-11-20T10:44:31;5.85;;;3.65;;
50769;SDS011;36740;48.698;11.472;2022-11-20T10:47:36;5.72;;;2.28;;
50769;SDS011;36740;48.698;11.472;2022-11-20T10:50:21;4.97;;;2.58;;
50769;SDS011;36740;48.698;11.472;2022-11-20T10:55:58;3.80;;;3.13;;
50769;SDS011;36740;48.698;11.472;2022-11-20T10:58:54;3.83;;;2.88;;
50769;SDS011;36740;48.698;11.472;2022-11-20T11:01:45;2.25;;;1.63;;
50769;SDS011;36740;48.698;11.472;2022-11-20T11:04:33;4.40;;;2.35;;
50769;SDS011;36740;48.698;11.472;2022-11-20T11:07:22;4.47;;;1.88;;
50769;SDS011;36740;48.698;11.472;2022-11-20T11:10:30;3.17;;;1.92;;
50769;SDS011;36740;48.698;11.472;2022-11-20T11:13:21;4.03;;;2.72;;
50769;SDS011;36740;48.698;11.472;2022-11-20T11:16:16;1.63;;;1.40;;
50769;SDS011;36740;48.698;11.472;2022-11-20T11:19:13;2.30;;;2.08;;
50769;SDS011;36740;48.698;11.472;2022-11-20T11:22:02;1.58;;;1.48;;
50769;SDS011;36740;48.698;11.472;2022-11-20T11:24:55;5.30;;;1.92;;
50769;SDS011;36740;48.698;11.472;2022-11-20T11:27:48;1.98;;;1.58;;
50769;SDS011;36740;48.698;11.472;2022-11-20T11:30:48;4.15;;;1.73;;
50769;SDS011;36740;48.698;11.472;2022-11-20T11:33:40;1.30;;;1.15;;
50769;SDS011;36740;48.698;11.472;2022-11-20T11:37:03;1.55;;;1.45;;
50769;SDS011;36740;48.698;11.472;2022-11-20T11:39:55;1.92;;;1.55;;
50769;SDS011;36740;48.698;11.472;2022-11-20T11:42:42;1.95;;;1.48;;
50769;SDS011;36740;48.698;11.472;2022-11-20T11:45:28;3.22;;;2.58;;
50769;SDS011;36740;48.698;11.472;2022-11-20T11:48:14;1.55;;;1.45;;
50769;SDS011;36740;48.698;11.472;2022-11-20T11:51:00;1.33;;;1.23;;
50769;SDS011;36740;48.698;11.472;2022-11-20T11:53:47;3.25;;;2.50;;
50769;SDS011;36740;48.698;11.472;2022-11-20T11:56:33;3.85;;;1.88;;
50769;SDS011;36740;48.698;11.472;2022-11-20T11:59:27;3.20;;;1.80;;
50769;SDS011;36740;48.698;11.472;2022-11-20T12:02:24;1.92;;;1.83;;
50769;SDS011;36740;48.698;11.472;2022-11-20T12:08:02;3.92;;;2.42;;
50769;SDS011;36740;48.698;11.472;2022-11-20T12:10:54;2.45;;;2.03;;
50769;SDS011;36740;48.698;11.472;2022-11-20T12:16:47;2.67;;;2.20;;
50769;SDS011;36740;48.698;11.472;2022-11-20T12:19:34;3.25;;;2.20;;
50769;SDS011;36740;48.698;11.472;2022-11-20T12:25:30;3.13;;;1.88;;
50769;SDS011;36740;48.698;11.472;2022-11-20T12:28:26;2.60;;;2.40;;
50769;SDS011;36740;48.698;11.472;2022-11-20T12:34:24;2.05;;;1.90;;
50769;SDS011;36740;48.698;11.472;2022-11-20T12:43:24;2.03;;;1.80;;
50769;SDS011;36740;48.698;11.472;2022-11-20T12:55:20;2.22;;;1.52;;
50769;SDS011;36740;48.698;11.472;2022-11-20T13:01:03;1.17;;;1.17;;
50769;SDS011;36740;48.698;11.472;2022-11-20T13:03:51;2.00;;;1.80;;
50769;SDS011;36740;48.698;11.472;2022-11-20T13:06:42;3.67;;;1.67;;
50769;SDS011;36740;48.698;11.472;2022-11-20T13:09:28;1.77;;;1.67;;
50769;SDS011;36740;48.698;11.472;2022-11-20T13:12:24;2.47;;;1.85;;
50769;SDS011;36740;48.698;11.472;2022-11-20T13:15:17;1.80;;;1.65;;
50769;SDS011;36740;48.698;11.472;2022-11-20T13:18:11;2.60;;;1.85;;
50769;SDS011;36740;48.698;11.472;2022-11-20T13:20:56;1.70;;;1.60;;
50769;SDS011;36740;48.698;11.472;2022-11-20T13:23:42;1.45;;;1.35;;
50769;SDS011;36740;48.698;11.472;2022-11-20T13:26:28;2.03;;;1.63;;
50769;SDS011;36740;48.698;11.472;2022-11-20T13:29:22;4.93;;;1.80;;
50769;SDS011;36740;48.698;11.472;2022-11-20T13:32:31;1.63;;;1.40;;
50769;SDS011;36740;48.698;11.472;2022-11-20T14:01:17;5.25;;;2.42;;
50769;SDS011;36740;48.698;11.472;2022-11-20T14:04:08;4.10;;;2.20;;
50769;SDS011;36740;48.698;11.472;2022-11-20T14:06:54;1.17;;;1.10;;
50769;SDS011;36740;48.698;11.472;2022-11-20T14:09:48;1.42;;;1.30;;
50769;SDS011;36740;48.698;11.472;2022-11-20T14:12:34;3.30;;;1.60;;
50769;SDS011;36740;48.698;11.472;2022-11-20T14:15:29;2.00;;;1.60;;
50769;SDS011;36740;48.698;11.472;2022-11-20T14:18:19;2.20;;;1.20;;
50769;SDS011;36740;48.698;11.472;2022-11-20T14:21:27;2.45;;;1.58;;
50769;SDS011;36740;48.698;11.472;2022-11-20T14:24:12;2.13;;;1.48;;
50769;SDS011;36740;48.698;11.472;2022-11-20T14:26:57;1.80;;;1.70;;
50769;SDS011;36740;48.698;11.472;2022-11-20T14:29:43;2.13;;;1.75;;
50769;SDS011;36740;48.698;11.472;2022-11-20T14:32:30;1.60;;;1.33;;
50769;SDS011;36740;48.698;11.472;2022-11-20T14:35:25;2.65;;;1.55;;
50769;SDS011;36740;48.698;11.472;2022-11-20T14:38:12;13.60;;;7.00;;
50769;SDS011;36740;48.698;11.472;2022-11-20T14:41:08;10.35;;;4.72;;
50769;SDS011;36740;48.698;11.472;2022-11-20T14:43:56;11.27;;;6.40;;
50769;SDS011;36740;48.698;11.472;2022-11-20T14:46:42;16.95;;;10.65;;
50769;SDS011;36740;48.698;11.472;2022-11-20T14:49:29;3.45;;;2.33;;
50769;SDS011;36740;48.698;11.472;2022-11-20T14:52:16;3.03;;;2.13;;
50769;SDS011;36740;48.698;11.472;2022-11-20T14:55:02;2.60;;;1.88;;
50769;SDS011;36740;48.698;11.472;2022-11-20T14:57:53;4.95;;;2.47;;
50769;SDS011;36740;48.698;11.472;2022-11-20T15:00:39;1.55;;;1.27;;
50769;SDS011;36740;48.698;11.472;2022-11-20T15:03:38;2.75;;;1.75;;
50769;SDS011;36740;48.698;11.472;2022-11-20T15:06:27;1.92;;;1.40;;
50769;SDS011;36740;48.698;11.472;2022-11-20T15:09:13;2.28;;;1.38;;
50769;SDS011;36740;48.698;11.472;2022-11-20T15:12:02;3.40;;;2.05;;
50769;SDS011;36740;48.698;11.472;2022-11-20T15:14:51;4.55;;;1.95;;
50769;SDS011;36740;48.698;11.472;2022-11-20T15:17:37;2.05;;;1.73;;
50769;SDS011;36740;48.698;11.472;2022-11-20T15:20:27;2.83;;;1.92;;
50769;SDS011;36740;48.698;11.472;2022-11-20T15:23:17;4.03;;;2.05;;
50769;SDS011;36740;48.698;11.472;2022-11-20T15:26:06;2.15;;;1.20;;
50769;SDS011;36740;48.698;11.472;2022-11-20T15:28:52;3.42;;;2.25;;
50769;SDS011;36740;48.698;11.472;2022-11-20T15:31:38;6.68;;;1.83;;
50769;SDS011;36740;48.698;11.472;2022-11-20T15:34:29;7.78;;;2.70;;
50769;SDS011;36740;48.698;11.472;2022-11-20T15:37:15;2.25;;;1.77;;
50769;SDS011;36740;48.698;11.472;2022-11-20T15:40:00;4.60;;;2.30;;
50769;SDS011;36740;48.698;11.472;2022-11-20T15:42:46;5.63;;;3.55;;
50769;SDS011;36740;48.698;11.472;2022-11-20T15:45:52;13.82;;;8.60;;
50769;SDS011;36740;48.698;11.472;2022-11-20T15:48:39;9.48;;;5.03;;
50769;SDS011;36740;48.698;11.472;2022-11-20T15:51:32;6.85;;;3.25;;
50769;SDS011;36740;48.698;11.472;2022-11-20T15:54:20;3.60;;;2.33;;
50769;SDS011;36740;48.698;11.472;2022-11-20T15:57:06;4.03;;;2.35;;
50769;SDS011;36740;48.698;11.472;2022-11-20T15:59:52;5.20;;;3.35;;
50769;SDS011;36740;48.698;11.472;2022-11-20T16:02:37;6.50;;;4.60;;
50769;SDS011;36740;48.698;11.472;2022-11-20T16:05:23;3.47;;;2.70;;
50769;SDS011;36740;48.698;11.472;2022-11-20T16:08:08;3.72;;;2.20;;
50769;SDS011;36740;48.698;11.472;2022-11-20T16:10:54;2.03;;;1.85;;
50769;SDS011;36740;48.698;11.472;2022-11-20T16:13:40;4.70;;;2.50;;
50769;SDS011;36740;48.698;11.472;2022-11-20T16:16:44;4.60;;;1.70;;
50769;SDS011;36740;48.698;11.472;2022-11-20T16:19:30;3.55;;;1.95;;
50769;SDS011;36740;48.698;11.472;2022-11-20T16:22:15;5.47;;;2.85;;
50769;SDS011;36740;48.698;11.472;2022-11-20T16:25:01;4.03;;;2.95;;
50769;SDS011;36740;48.698;11.472;2022-11-20T16:27:47;2.70;;;1.77;;
50769;SDS011;36740;48.698;11.472;2022-11-20T16:30:33;5.43;;;3.33;;
50769;SDS011;36740;48.698;11.472;2022-11-20T16:33:18;5.32;;;3.40;;
50769;SDS011;36740;48.698;11.472;2022-11-20T16:36:11;5.90;;;3.92;;
50769;SDS011;36740;48.698;11.472;2022-11-20T16:38:58;6.43;;;4.88;;
50769;SDS011;36740;48.698;11.472;2022-11-20T16:41:44;7.13;;;4.90;;
50769;SDS011;36740;48.698;11.472;2022-11-20T16:44:33;9.40;;;4.43;;
50769;SDS011;36740;48.698;11.472;2022-11-20T16:47:19;10.38;;;6.20;;
50769;SDS011;36740;48.698;11.472;2022-11-20T16:50:05;7.13;;;5.30;;
50769;SDS011;36740;48.698;11.472;2022-11-20T16:52:51;15.95;;;6.00;;
50769;SDS011;36740;48.698;11.472;2022-11-20T16:55:36;9.57;;;6.32;;
50769;SDS011;36740;48.698;11.472;2022-11-20T16:58:22;9.00;;;6.88;;
50769;SDS011;36740;48.698;11.472;2022-11-20T17:01:08;6.90;;;5.28;;
50769;SDS011;36740;48.698;11.472;2022-11-20T17:03:55;10.05;;;5.50;;
50769;SDS011;36740;48.698;11.472;2022-11-20T17:06:42;18.13;;;8.25;;
50769;SDS011;36740;48.698;11.472;2022-11-20T17:09:32;20.35;;;11.00;;
50769;SDS011;36740;48.698;11.472;2022-11-20T17:12:18;20.42;;;8.85;;
50769;SDS011;36740;48.698;11.472;2022-11-20T17:15:03;13.02;;;9.13;;
50769;SDS011;36740;48.698;11.472;2022-11-20T17:17:52;8.65;;;6.00;;
50769;SDS011;36740;48.698;11.472;2022-11-20T17:20:38;6.57;;;5.35;;
50769;SDS011;36740;48.698;11.472;2022-11-20T17:23:23;6.85;;;5.35;;
50769;SDS011;36740;48.698;11.472;2022-11-20T17:26:11;6.55;;;5.28;;
50769;SDS011;36740;48.698;11.472;2022-11-20T17:28:59;11.98;;;7.05;;
50769;SDS011;36740;48.698;11.472;2022-11-20T17:31:45;12.07;;;8.73;;
50769;SDS011;36740;48.698;11.472;2022-11-20T17:34:32;11.07;;;5.60;;
50769;SDS011;36740;48.698;11.472;2022-11-20T17:37:21;12.85;;;7.95;;
50769;SDS011;36740;48.698;11.472;2022-11-20T17:40:07;7.18;;;3.88;;
50769;SDS011;36740;48.698;11.472;2022-11-20T17:42:52;3.35;;;3.00;;
50769;SDS011;36740;48.698;11.472;2022-11-20T17:45:38;3.53;;;2.63;;
50769;SDS011;36740;48.698;11.472;2022-11-20T17:48:24;3.72;;;2.35;;
50769;SDS011;36740;48.698;11.472;2022-11-20T17:51:10;4.53;;;2.80;;
50769;SDS011;36740;48.698;11.472;2022-11-20T17:53:57;4.82;;;3.38;;
50769;SDS011;36740;48.698;11.472;2022-11-20T17:56:43;5.68;;;2.80;;
50769;SDS011;36740;48.698;11.472;2022-11-20T17:59:47;8.07;;;3.45;;
50769;SDS011;36740;48.698;11.472;2022-11-20T18:02:33;7.05;;;3.70;;
50769;SDS011;36740;48.698;11.472;2022-11-20T18:05:19;9.23;;;6.15;;
50769;SDS011;36740;48.698;11.472;2022-11-20T18:08:04;9.32;;;5.53;;